Time;durP1;ratioP1;P1;durP2;ratioP2;P2;SDS_P1;SDS_P2;PMS_P1;PMS_P2;Temp;Humidity;BMP_temperature;BMP_pressure;BME280_temperature;BME280_humidity;BME280_pressure;Samples;Min_cycle;Max_cycle;Signal;HPM_P1;HPM_P2
2023/10/03 00:00:24;;;;;;;17.40;7.00;;;;;;;17.00;35.21;101385.91;108166;1287;21971;-60
2023/10/03 00:02:55;;;;;;;19.60;6.40;;;;;;;16.92;35.30;101387.65;108143;1288;21976;-66
2023/10/03 00:05:28;;;;;;;18.50;6.80;;;;;;;16.88;35.42;101388.42;108105;1288;21951;-59
2023/10/03 00:07:56;;;;;;;13.20;6.20;;;;;;;16.86;35.54;101389.91;108212;1283;23536;-59
2023/10/03 00:10:22;;;;;;;14.60;6.80;;;;;;;16.80;35.65;101390.05;108148;1280;21991;-58
2023/10/03 00:12:49;;;;;;;16.80;7.00;;;;;;;16.75;35.76;101388.38;108176;1288;21981;-59
2023/10/03 00:15:16;;;;;;;16.10;6.50;;;;;;;16.74;35.77;101388.39;108104;1283;21987;-59
2023/10/03 00:17:42;;;;;;;13.90;5.70;;;;;;;16.71;35.89;101385.63;108163;1288;21993;-66
2023/10/03 00:20:11;;;;;;;17.00;7.00;;;;;;;16.66;35.89;101385.90;108179;1287;21988;-62
2023/10/03 00:22:38;;;;;;;16.00;6.70;;;;;;;16.63;36.03;101386.33;108132;1288;21988;-65
2023/10/03 00:25:07;;;;;;;15.70;6.40;;;;;;;16.63;35.99;101390.58;108152;1288;21996;-65
2023/10/03 00:27:35;;;;;;;17.70;7.10;;;;;;;16.63;35.92;101391.10;108150;1285;23647;-59
2023/10/03 00:30:02;;;;;;;36.80;6.70;;;;;;;16.63;36.00;101392.52;108120;1283;21990;-59
2023/10/03 00:32:30;;;;;;;30.60;8.00;;;;;;;16.63;35.98;101388.98;108152;1287;23624;-66
2023/10/03 00:34:56;;;;;;;25.80;6.80;;;;;;;16.64;36.00;101391.78;108131;1283;21986;-64
2023/10/03 00:37:23;;;;;;;16.10;6.80;;;;;;;16.67;35.98;101394.05;108161;1277;21990;-66
2023/10/03 00:39:49;;;;;;;15.40;6.10;;;;;;;16.67;36.13;101393.86;108146;1283;21993;-66
2023/10/03 00:42:15;;;;;;;16.00;6.40;;;;;;;16.68;35.99;101394.54;108097;1281;22004;-66
2023/10/03 00:44:41;;;;;;;15.40;6.50;;;;;;;16.70;36.15;101394.86;108137;1288;22022;-58
2023/10/03 00:47:07;;;;;;;18.70;7.00;;;;;;;16.70;36.15;101396.64;108162;1288;22024;-66
2023/10/03 00:49:35;;;;;;;15.20;6.40;;;;;;;16.70;36.22;101397.17;108130;1288;22625;-59
2023/10/03 00:52:05;;;;;;;15.20;7.00;;;;;;;16.72;36.12;101399.09;108125;1283;21985;-65
2023/10/03 00:54:32;;;;;;;15.00;6.40;;;;;;;16.74;36.12;101402.05;108135;1286;21978;-66
2023/10/03 00:56:57;;;;;;;16.40;6.70;;;;;;;16.75;36.20;101399.54;108156;1283;21987;-65
2023/10/03 00:59:23;;;;;;;15.30;5.80;;;;;;;16.74;36.28;101397.08;108112;1284;21978;-60
2023/10/03 01:01:49;;;;;;;13.90;6.10;;;;;;;16.70;36.39;101400.01;107832;1288;21992;-59
2023/10/03 01:04:19;;;;;;;13.90;6.20;;;;;;;16.66;36.46;101395.30;108110;1284;21998;-66
2023/10/03 01:06:47;;;;;;;15.30;6.40;;;;;;;16.62;36.43;101397.16;108085;1288;21990;-59
2023/10/03 01:09:24;;;;;;;16.00;6.40;;;;;;;16.60;36.52;101398.62;108176;1286;21993;-65
2023/10/03 01:11:52;;;;;;;22.40;6.20;;;;;;;16.58;36.51;101394.77;108126;1278;22182;-65
2023/10/03 01:14:18;;;;;;;16.40;7.00;;;;;;;16.57;36.51;101401.86;108146;1286;21990;-59
2023/10/03 01:16:45;;;;;;;13.90;5.80;;;;;;;16.56;36.58;101403.13;108145;1288;23711;-60
2023/10/03 01:19:29;;;;;;;12.60;5.50;;;;;;;16.52;36.58;101404.10;108160;1281;21991;-62
2023/10/03 01:21:56;;;;;;;18.40;6.40;;;;;;;16.46;36.81;101406.86;108127;1288;21992;-59
2023/10/03 01:24:24;;;;;;;17.60;7.10;;;;;;;16.43;36.76;101404.10;108153;1280;22000;-66
2023/10/03 01:26:53;;;;;;;16.70;6.60;;;;;;;16.43;36.68;101404.45;108190;1288;22027;-66
2023/10/03 01:29:20;;;;;;;15.10;6.60;;;;;;;16.45;36.70;101407.61;108142;1283;21987;-65
2023/10/03 01:31:48;;;;;;;21.30;6.60;;;;;;;16.44;36.75;101405.30;108160;1280;22025;-65
2023/10/03 01:34:15;;;;;;;15.70;6.50;;;;;;;16.40;36.77;101403.80;108181;1288;21963;-58
2023/10/03 01:36:47;;;;;;;13.50;6.40;;;;;;;16.37;36.75;101404.58;108133;1283;21990;-65
2023/10/03 01:39:16;;;;;;;17.00;6.70;;;;;;;16.36;36.87;101405.30;108168;1288;22009;-59
2023/10/03 01:41:42;;;;;;;14.70;6.10;;;;;;;16.35;36.89;101404.95;108095;1287;22047;-64
2023/10/03 01:44:08;;;;;;;19.30;6.10;;;;;;;16.34;36.91;101403.56;108162;1284;21987;-65
2023/10/03 01:46:34;;;;;;;18.70;6.60;;;;;;;16.32;37.00;101405.57;108160;1280;21992;-58
2023/10/03 01:49:00;;;;;;;14.80;6.50;;;;;;;16.28;36.97;101406.88;108138;1288;21993;-65
2023/10/03 01:51:26;;;;;;;15.20;6.00;;;;;;;16.27;37.00;101406.91;108139;1288;21980;-65
2023/10/03 01:53:55;;;;;;;20.40;6.60;;;;;;;16.27;36.94;101406.91;108172;1277;21988;-58
2023/10/03 01:56:21;;;;;;;14.30;5.60;;;;;;;16.25;36.96;101405.52;108145;1288;23044;-58
2023/10/03 01:58:47;;;;;;;14.50;6.20;;;;;;;16.23;37.03;101402.55;108084;1287;22024;-65
2023/10/03 02:01:13;;;;;;;15.10;5.80;;;;;;;16.23;37.00;101401.32;108168;1288;22015;-65
2023/10/03 02:03:39;;;;;;;18.20;7.30;;;;;;;16.21;37.00;101404.71;108078;1288;21987;-58
2023/10/03 02:06:07;;;;;;;16.80;6.70;;;;;;;16.19;37.05;101403.33;108084;1288;21987;-58
2023/10/03 02:08:33;;;;;;;16.80;6.00;;;;;;;16.17;37.03;101401.96;108097;1277;21989;-65
2023/10/03 02:10:59;;;;;;;21.50;6.50;;;;;;;16.15;37.13;101402.34;108090;1287;21986;-65
2023/10/03 02:13:25;;;;;;;15.50;6.50;;;;;;;16.15;37.23;101405.89;108110;1283;21989;-58
2023/10/03 02:15:52;;;;;;;17.50;6.80;;;;;;;16.12;37.15;101408.08;108107;1283;22102;-58
2023/10/03 02:18:19;;;;;;;16.40;5.70;;;;;;;16.08;37.24;101408.52;105930;1288;1002548;-58
2023/10/03 02:20:53;;;;;;;18.20;6.40;;;;;;;16.05;37.21;101411.05;108193;1287;22208;-58
2023/10/03 02:23:23;;;;;;;16.20;6.40;;;;;;;16.02;37.29;101408.61;108106;1287;21998;-65
2023/10/03 02:26:10;;;;;;;17.80;6.40;;;;;;;16.01;37.30;101406.69;108142;1286;22031;-59
2023/10/03 02:28:37;;;;;;;13.90;6.20;;;;;;;15.98;37.30;101407.63;108106;1288;21992;-58
2023/10/03 02:31:07;;;;;;;17.80;6.40;;;;;;;15.96;37.30;101408.71;108122;1288;22000;-57
2023/10/03 02:33:37;;;;;;;;;;;;;;;15.94;37.40;101405.56;108106;1288;22180;-58
2023/10/03 02:36:04;;;;;;;13.20;5.60;;;;;;;15.90;37.45;101405.11;108084;1283;22032;-57
2023/10/03 02:38:35;;;;;;;16.90;6.40;;;;;;;15.87;37.54;101403.39;108194;1288;21992;-65
2023/10/03 02:41:00;;;;;;;15.30;6.70;;;;;;;15.84;37.50;101402.54;108095;1288;21994;-66
2023/10/03 02:43:27;;;;;;;17.30;6.40;;;;;;;15.79;37.45;101399.44;108099;1288;21995;-57
2023/10/03 02:45:53;;;;;;;19.80;6.90;;;;;;;15.74;37.55;101400.05;108110;1280;21980;-58
2023/10/03 02:48:20;;;;;;;13.40;5.90;;;;;;;15.70;37.62;101404.89;108129;1277;21990;-58
2023/10/03 02:50:47;;;;;;;17.60;6.10;;;;;;;15.66;37.58;101401.44;108109;1287;21951;-65
2023/10/03 02:53:15;;;;;;;15.60;6.60;;;;;;;15.62;37.74;101403.27;108150;1288;22042;-58
2023/10/03 02:55:41;;;;;;;24.50;13.20;;;;;;;15.57;37.85;101403.70;108109;1286;23798;-58
2023/10/03 02:58:09;;;;;;;23.20;10.30;;;;;;;15.52;37.80;101402.38;108137;1288;22003;-65
2023/10/03 03:00:37;;;;;;;19.30;8.50;;;;;;;15.49;37.89;101406.48;108092;1287;21996;-57
2023/10/03 03:03:06;;;;;;;20.50;6.60;;;;;;;15.47;38.02;101408.98;108191;1288;22003;-66
2023/10/03 03:05:36;;;;;;;24.60;7.90;;;;;;;15.45;38.02;101406.91;108077;1288;21992;-66
2023/10/03 03:10:51;;;;;;;17.60;6.10;;;;;;;15.45;38.14;101408.33;108113;1288;22000;-66
2023/10/03 03:13:18;;;;;;;13.30;6.30;;;;;;;15.41;38.30;101407.69;108128;1277;22064;-57
2023/10/03 03:15:51;;;;;;;15.80;6.40;;;;;;;15.38;38.25;101409.85;108126;1286;21992;-57
2023/10/03 03:18:21;;;;;;;18.70;6.60;;;;;;;15.39;38.24;101410.73;108060;1283;21992;-66
2023/10/03 03:20:53;;;;;;;14.80;6.30;;;;;;;15.40;38.27;101414.09;108154;1286;22005;-66
2023/10/03 03:23:20;;;;;;;16.00;6.50;;;;;;;15.38;38.27;101417.46;108139;1288;21987;-66
2023/10/03 03:25:49;;;;;;;16.20;5.80;;;;;;;15.38;38.34;101421.16;108157;1284;22004;-57
2023/10/03 03:28:15;;;;;;;14.60;6.10;;;;;;;15.38;38.31;101423.83;108123;1286;22156;-58
2023/10/03 03:30:47;;;;;;;17.30;6.30;;;;;;;15.35;38.29;101422.98;108028;1288;21995;-57
2023/10/03 03:33:20;;;;;;;17.10;6.60;;;;;;;15.32;38.30;101421.95;108192;1283;22779;-67
2023/10/03 03:35:48;;;;;;;19.20;6.30;;;;;;;15.31;38.32;101423.04;108030;1288;23712;-67
2023/10/03 03:38:18;;;;;;;16.10;6.70;;;;;;;15.29;38.29;101430.15;108190;1284;21999;-66
2023/10/03 03:40:53;;;;;;;17.90;6.20;;;;;;;15.28;38.23;101433.17;108220;1287;24060;-58
2023/10/03 03:43:19;;;;;;;17.50;6.10;;;;;;;15.26;38.38;101431.96;108218;1283;21983;-67
2023/10/03 03:45:44;;;;;;;18.90;6.50;;;;;;;15.24;38.55;101433.21;108203;1288;21994;-67
2023/10/03 03:48:11;;;;;;;21.50;6.50;;;;;;;15.26;38.60;101431.95;108187;1284;21989;-67
2023/10/03 03:50:37;;;;;;;20.00;7.30;;;;;;;15.25;38.62;101431.79;108143;1285;21987;-57
2023/10/03 03:53:03;;;;;;;25.40;7.00;;;;;;;15.24;38.55;101429.85;108156;1285;22003;-57
2023/10/03 03:55:30;;;;;;;21.20;7.80;;;;;;;15.21;38.71;101431.85;108102;1283;22462;-58
2023/10/03 03:57:56;;;;;;;19.40;6.80;;;;;;;15.19;38.80;101431.19;108187;1284;21992;-58
2023/10/03 04:00:23;;;;;;;25.90;10.50;;;;;;;15.19;38.77;101431.02;108128;1288;21988;-68
2023/10/03 04:02:49;;;;;;;37.30;9.80;;;;;;;15.19;38.91;101430.65;108210;1283;22575;-58
2023/10/03 04:05:20;;;;;;;24.30;8.50;;;;;;;15.21;38.93;101432.92;108140;1288;21989;-58
2023/10/03 04:07:46;;;;;;;20.90;6.40;;;;;;;15.21;39.03;101435.21;108133;1288;22002;-57
2023/10/03 04:10:15;;;;;;;20.10;7.00;;;;;;;15.20;38.87;101436.11;108017;1288;21987;-67
2023/10/03 04:12:43;;;;;;;17.10;6.60;;;;;;;15.18;38.93;101435.60;108175;1288;22456;-66
2023/10/03 04:15:18;;;;;;;28.10;7.00;;;;;;;15.17;38.89;101436.16;108117;1284;22004;-58
2023/10/03 04:17:44;;;;;;;43.40;8.40;;;;;;;15.16;38.95;101437.59;108111;1288;21995;-58
2023/10/03 04:20:19;;;;;;;21.10;6.60;;;;;;;15.15;38.98;101433.88;108080;1288;21986;-58
2023/10/03 04:22:50;;;;;;;19.00;6.90;;;;;;;15.17;39.01;101436.34;108139;1284;22025;-63
2023/10/03 04:25:19;;;;;;;25.30;6.80;;;;;;;15.18;39.03;101436.33;108094;1279;22066;-67
2023/10/03 04:27:55;;;;;;;19.80;6.80;;;;;;;15.21;38.98;101438.94;108125;1288;22014;-68
2023/10/03 04:30:22;;;;;;;21.50;7.30;;;;;;;15.23;39.10;101438.89;108107;1288;21989;-58
2023/10/03 04:32:48;;;;;;;26.10;7.10;;;;;;;15.28;39.31;101443.77;108179;1281;22143;-68
2023/10/03 04:35:14;;;;;;;16.40;6.60;;;;;;;15.30;39.25;101446.39;108025;1288;21992;-58
2023/10/03 04:37:43;;;;;;;75.60;10.50;;;;;;;15.33;39.22;101444.05;108114;1288;21992;-68
2023/10/03 04:40:28;;;;;;;28.30;7.80;;;;;;;15.35;39.25;101444.55;107977;1288;22005;-68
2023/10/03 04:43:05;;;;;;;26.10;6.40;;;;;;;15.38;39.27;101448.04;108035;1288;22159;-68
2023/10/03 04:45:32;;;;;;;21.20;7.30;;;;;;;15.39;39.42;101453.86;108043;1288;22037;-58
2023/10/03 04:47:57;;;;;;;19.90;7.60;;;;;;;15.43;39.44;101461.42;108143;1288;21989;-67
2023/10/03 04:50:25;;;;;;;19.80;6.50;;;;;;;15.48;39.48;101465.04;108099;1280;22001;-66
2023/10/03 04:52:52;;;;;;;17.70;6.10;;;;;;;15.53;39.58;101469.57;108169;1287;22454;-67
2023/10/03 04:55:19;;;;;;;17.50;6.10;;;;;;;15.60;39.57;101470.00;108075;1287;21989;-68
2023/10/03 04:57:46;;;;;;;20.40;6.80;;;;;;;15.67;39.54;101470.41;108173;1288;21992;-57
2023/10/03 05:00:15;;;;;;;16.30;5.90;;;;;;;15.74;39.56;101472.59;108093;1288;21967;-58
2023/10/03 05:02:48;;;;;;;16.60;7.20;;;;;;;15.81;39.57;101473.73;108140;1284;22831;-58
2023/10/03 05:05:18;;;;;;;19.20;6.00;;;;;;;15.88;39.68;101475.59;108062;1288;21987;-58
2023/10/03 05:07:45;;;;;;;22.80;7.10;;;;;;;15.96;39.80;101477.21;108181;1288;22019;-58
2023/10/03 05:10:11;;;;;;;32.30;6.90;;;;;;;16.05;39.72;101473.88;108166;1287;21986;-60
2023/10/03 05:12:38;;;;;;;22.20;7.30;;;;;;;16.16;39.80;101474.92;108077;1278;21992;-58
2023/10/03 05:15:07;;;;;;;19.00;7.00;;;;;;;16.25;39.80;101475.99;108087;1288;21995;-59
2023/10/03 05:17:35;;;;;;;18.00;7.10;;;;;;;16.33;39.74;101476.72;108157;1287;22099;-66
2023/10/03 05:20:02;;;;;;;13.60;6.00;;;;;;;16.42;39.70;101475.32;108152;1282;21992;-58
2023/10/03 05:22:32;;;;;;;17.60;6.50;;;;;;;16.50;39.75;101474.64;108159;1284;21987;-59
2023/10/03 05:25:00;;;;;;;20.40;6.30;;;;;;;16.59;39.75;101477.11;108105;1278;21990;-59
2023/10/03 05:27:29;;;;;;;20.10;7.00;;;;;;;16.69;39.76;101475.86;108125;1277;22003;-58
2023/10/03 05:30:05;;;;;;;14.60;6.10;;;;;;;16.82;39.70;101481.62;108131;1288;22036;-66
2023/10/03 05:32:31;;;;;;;14.10;6.10;;;;;;;16.94;39.62;101481.05;108146;1281;21990;-58
2023/10/03 05:35:00;;;;;;;16.40;7.00;;;;;;;17.05;39.63;101481.53;108123;1284;21989;-67
2023/10/03 05:37:26;;;;;;;20.50;6.60;;;;;;;17.16;39.54;101482.17;108085;1288;21992;-65
2023/10/03 05:39:52;;;;;;;14.50;6.30;;;;;;;17.28;39.64;101485.98;108114;1280;22009;-67
2023/10/03 05:42:18;;;;;;;18.70;6.50;;;;;;;17.39;39.57;101486.27;108127;1288;21992;-67
2023/10/03 05:44:44;;;;;;;16.70;7.30;;;;;;;17.52;39.55;101488.27;108123;1287;22363;-67
2023/10/03 05:47:10;;;;;;;20.30;6.50;;;;;;;17.62;39.52;101486.80;108147;1285;21965;-58
2023/10/03 05:49:36;;;;;;;21.50;7.40;;;;;;;17.75;39.52;101488.62;108141;1284;22008;-67
2023/10/03 05:52:02;;;;;;;20.70;6.60;;;;;;;17.86;39.37;101485.33;107823;1288;22050;-67
2023/10/03 05:54:30;;;;;;;18.70;7.50;;;;;;;17.99;39.37;101486.98;108092;1288;21989;-58
2023/10/03 05:56:56;;;;;;;17.10;7.50;;;;;;;18.14;39.41;101489.25;108139;1287;21992;-58
2023/10/03 05:59:21;;;;;;;17.70;6.90;;;;;;;18.30;39.33;101492.20;108100;1288;21992;-61
2023/10/03 06:01:47;;;;;;;18.80;8.30;;;;;;;18.46;39.22;101489.66;108101;1288;21996;-60
2023/10/03 06:04:14;;;;;;;21.90;7.40;;;;;;;18.61;39.30;101488.52;108155;1288;23715;-65
2023/10/03 06:06:39;;;;;;;25.60;8.20;;;;;;;18.77;39.16;101489.33;108112;1288;22043;-59
2023/10/03 06:09:05;;;;;;;22.80;7.90;;;;;;;18.92;39.21;101488.91;108142;1288;21995;-66
2023/10/03 06:11:31;;;;;;;16.90;7.00;;;;;;;19.09;39.17;101491.98;108097;1288;21985;-59
2023/10/03 06:13:59;;;;;;;17.00;8.00;;;;;;;19.24;39.09;101491.70;108108;1280;21999;-67
2023/10/03 06:16:28;;;;;;;22.00;7.70;;;;;;;19.38;38.97;101494.81;108103;1288;21958;-66
2023/10/03 06:18:54;;;;;;;16.00;6.90;;;;;;;19.51;38.98;101498.16;108120;1287;21990;-66
2023/10/03 06:21:19;;;;;;;13.80;6.80;;;;;;;19.64;38.97;101495.79;108143;1288;21989;-59
2023/10/03 06:23:46;;;;;;;15.30;6.70;;;;;;;19.78;38.80;101493.91;108165;1284;21978;-58
2023/10/03 06:26:17;;;;;;;18.10;6.40;;;;;;;19.92;38.77;101495.60;108088;1288;22026;-66
2023/10/03 06:28:44;;;;;;;14.20;6.40;;;;;;;20.09;38.77;101498.59;108127;1288;21978;-66
2023/10/03 06:31:11;;;;;;;14.40;6.50;;;;;;;20.24;38.66;101498.59;108120;1288;22154;-59
2023/10/03 06:33:37;;;;;;;13.80;6.60;;;;;;;20.39;38.56;101497.35;108104;1287;22454;-66
2023/10/03 06:36:06;;;;;;;16.70;6.40;;;;;;;20.57;38.52;101498.52;108163;1283;21992;-58
2023/10/03 06:38:32;;;;;;;16.80;6.50;;;;;;;20.78;38.71;101497.57;108156;1283;22004;-59
2023/10/03 06:40:59;;;;;;;16.20;6.30;;;;;;;21.06;38.67;101500.13;108141;1288;22983;-59
2023/10/03 06:43:25;;;;;;;15.60;5.90;;;;;;;21.32;38.42;101505.71;108090;1288;21997;-66
2023/10/03 06:45:51;;;;;;;13.70;6.90;;;;;;;21.55;38.30;101505.01;108100;1281;22152;-66
2023/10/03 06:48:17;;;;;;;15.00;6.00;;;;;;;21.75;38.10;101503.13;108060;1288;21991;-66
2023/10/03 06:50:42;;;;;;;17.40;6.70;;;;;;;21.93;37.87;101501.29;108098;1283;22010;-58
2023/10/03 06:53:13;;;;;;;14.90;6.30;;;;;;;22.07;37.61;101502.89;108150;1288;21992;-57
2023/10/03 06:55:39;;;;;;;15.80;6.50;;;;;;;22.21;37.59;101503.16;108097;1287;22457;-58
2023/10/03 06:58:04;;;;;;;16.60;6.60;;;;;;;22.38;37.21;101505.11;107369;1281;1002354;-58
2023/10/03 07:00:32;;;;;;;14.80;6.50;;;;;;;22.47;36.99;101510.10;108100;1287;21998;-66
2023/10/03 07:02:59;;;;;;;13.90;6.80;;;;;;;22.56;36.77;101510.78;107927;1288;23336;-67
2023/10/03 07:05:25;;;;;;;15.20;6.10;;;;;;;22.64;36.70;101513.29;108024;1286;23052;-67
2023/10/03 07:07:51;;;;;;;14.80;6.70;;;;;;;22.77;36.77;101518.82;108095;1280;21991;-62
2023/10/03 07:10:17;;;;;;;13.80;6.50;;;;;;;22.96;37.05;101518.30;108120;1287;21997;-62
2023/10/03 07:12:43;;;;;;;17.40;7.40;;;;;;;23.19;36.91;101514.71;108101;1283;21975;-64
2023/10/03 07:15:08;;;;;;;14.20;6.80;;;;;;;23.36;36.43;101513.23;108103;1287;21944;-67
2023/10/03 07:17:37;;;;;;;17.40;6.60;;;;;;;23.46;36.29;101513.29;108108;1288;22005;-65
2023/10/03 07:20:08;;;;;;;12.10;6.00;;;;;;;23.56;36.15;101517.09;108136;1288;21992;-65
2023/10/03 07:22:34;;;;;;;24.00;6.30;;;;;;;23.72;36.05;101520.27;108150;1288;22023;-65
2023/10/03 07:25:00;;;;;;;22.80;6.20;;;;;;;23.96;36.13;101523.36;108085;1288;21992;-65
2023/10/03 07:27:25;;;;;;;13.50;5.80;;;;;;;24.20;36.09;101520.38;108083;1287;22012;-65
2023/10/03 07:29:52;;;;;;;12.50;5.80;;;;;;;24.40;36.02;101519.35;108103;1281;21987;-58
2023/10/03 07:32:18;;;;;;;15.50;5.60;;;;;;;24.63;35.89;101517.77;108100;1288;21988;-57
2023/10/03 07:34:46;;;;;;;15.70;5.60;;;;;;;24.88;35.80;101518.96;108111;1284;22083;-57
2023/10/03 07:37:11;;;;;;;10.30;4.80;;;;;;;25.16;35.80;101515.30;108099;1288;21990;-64
2023/10/03 07:39:40;;;;;;;11.20;4.60;;;;;;;25.36;35.51;101517.77;108164;1288;22011;-58
2023/10/03 07:42:05;;;;;;;11.80;4.90;;;;;;;25.56;35.39;101516.14;108127;1280;21994;-58
2023/10/03 07:44:35;;;;;;;9.60;4.60;;;;;;;25.78;35.31;101512.52;108106;1288;21996;-58
2023/10/03 07:47:00;;;;;;;10.90;4.70;;;;;;;26.00;35.12;101509.77;107861;1288;21997;-58
2023/10/03 07:49:28;;;;;;;9.50;4.20;;;;;;;26.22;35.06;101510.66;108088;1283;22010;-60
2023/10/03 07:51:55;;;;;;;9.80;4.40;;;;;;;26.48;34.82;101512.73;108167;1288;23837;-58
2023/10/03 07:54:21;;;;;;;8.50;4.20;;;;;;;26.63;34.44;101510.86;108115;1288;21992;-66
2023/10/03 07:56:48;;;;;;;7.60;3.90;;;;;;;26.61;34.10;101514.64;108084;1280;22027;-66
2023/10/03 07:59:14;;;;;;;9.30;4.30;;;;;;;26.53;34.13;101512.55;108088;1276;21994;-65
2023/10/03 08:01:40;;;;;;;10.50;5.10;;;;;;;26.59;34.22;101514.38;108122;1286;22048;-58
2023/10/03 08:04:08;;;;;;;11.50;4.60;;;;;;;26.70;33.90;101515.13;108134;1277;22025;-65
2023/10/03 08:06:33;;;;;;;22.20;11.70;;;;;;;26.64;33.78;101514.25;108076;1282;23071;-58
2023/10/03 08:09:00;;;;;;;13.00;6.50;;;;;;;26.66;33.90;101511.95;108109;1281;21995;-58
2023/10/03 08:11:31;;;;;;;10.90;5.70;;;;;;;26.80;33.86;101511.10;108168;1287;21992;-65
2023/10/03 08:13:58;;;;;;;9.50;5.20;;;;;;;27.04;33.91;101510.13;108116;1288;21998;-65
2023/10/03 08:16:28;;;;;;;11.80;5.30;;;;;;;27.29;33.70;101507.06;108102;1288;22207;-59
2023/10/03 08:19:01;;;;;;;13.40;4.50;;;;;;;27.55;33.44;101507.23;108108;1288;22001;-65
2023/10/03 08:21:30;;;;;;;11.30;5.10;;;;;;;27.84;33.15;101505.85;108150;1288;22001;-66
2023/10/03 08:23:56;;;;;;;13.00;4.90;;;;;;;28.06;32.79;101505.05;108148;1288;22003;-58
2023/10/03 08:26:22;;;;;;;12.70;4.40;;;;;;;28.22;32.51;101503.27;108053;1288;21999;-59
2023/10/03 08:28:59;;;;;;;15.90;5.10;;;;;;;28.42;32.50;101503.73;110002;1288;22269;-70
2023/10/03 08:31:27;;;;;;;8.70;4.40;;;;;;;28.65;32.42;101502.88;109975;1288;21889;-59
2023/10/03 08:33:55;;;;;;;9.70;4.00;;;;;;;28.73;31.88;101498.98;110004;1288;21945;-66
2023/10/03 08:36:27;;;;;;;15.00;9.50;;;;;;;28.66;31.53;101496.61;108741;1288;21990;-66
2023/10/03 08:38:57;;;;;;;10.00;5.60;;;;;;;28.60;31.60;101496.88;109325;1288;21992;-59
2023/10/03 08:41:25;;;;;;;14.30;5.20;;;;;;;28.68;31.52;101496.88;108088;1288;22052;-65
2023/10/03 08:43:54;;;;;;;13.20;5.60;;;;;;;28.78;31.33;101490.02;108158;1287;21992;-61
2023/10/03 08:46:22;;;;;;;17.00;5.80;;;;;;;28.89;31.07;101489.61;108142;1288;22004;-66
2023/10/03 08:48:47;;;;;;;11.10;4.40;;;;;;;28.91;30.80;101487.27;107912;1288;22017;-65
2023/10/03 08:51:13;;;;;;;8.60;4.50;;;;;;;28.88;30.51;101483.92;107696;1288;22026;-65
2023/10/03 08:53:40;;;;;;;11.30;4.30;;;;;;;28.75;30.43;101489.88;108083;1288;21990;-66
2023/10/03 08:56:08;;;;;;;14.50;5.50;;;;;;;28.73;30.47;101490.67;108075;1287;22008;-59
2023/10/03 08:58:34;;;;;;;9.80;5.00;;;;;;;28.77;30.36;101491.53;108115;1276;22455;-60
2023/10/03 09:01:01;;;;;;;10.50;5.20;;;;;;;28.91;30.53;101488.17;108025;1288;22000;-59
2023/10/03 09:03:42;;;;;;;15.70;8.60;;;;;;;29.09;29.87;101487.08;107993;1288;21995;-59
2023/10/03 09:06:07;;;;;;;12.40;5.90;;;;;;;29.15;29.99;101490.80;108067;1284;22793;-58
2023/10/03 09:08:33;;;;;;;10.90;5.00;;;;;;;29.21;29.66;101487.25;108010;1279;22010;-59
2023/10/03 09:11:00;;;;;;;11.70;4.70;;;;;;;29.24;29.48;101486.84;107990;1288;22031;-68
2023/10/03 09:13:27;;;;;;;13.10;4.60;;;;;;;29.29;29.47;101490.50;108130;1288;21966;-61
2023/10/03 09:16:00;;;;;;;18.10;4.90;;;;;;;29.55;29.80;101485.13;108021;1288;22518;-59
2023/10/03 09:18:30;;;;;;;16.40;5.40;;;;;;;29.93;29.66;101476.99;108051;1281;22002;-66
2023/10/03 09:20:59;;;;;;;13.00;5.00;;;;;;;30.24;29.11;101474.82;108406;1283;22192;-64
2023/10/03 09:23:37;;;;;;;11.30;4.80;;;;;;;30.23;28.49;101475.78;108001;1287;21994;-64
2023/10/03 09:26:07;;;;;;;9.20;5.10;;;;;;;29.96;28.52;101475.73;108054;1288;21999;-64
2023/10/03 09:28:37;;;;;;;10.40;4.90;;;;;;;29.68;28.46;101478.55;108063;1288;22032;-64
2023/10/03 09:31:08;;;;;;;10.70;5.20;;;;;;;29.48;28.16;101474.11;108147;1286;21993;-60
2023/10/03 09:33:39;;;;;;;16.30;5.20;;;;;;;29.39;28.40;101472.98;108123;1283;21992;-67
2023/10/03 09:36:06;;;;;;;12.20;4.90;;;;;;;29.50;28.66;101471.06;108116;1284;21990;-59
2023/10/03 09:38:44;;;;;;;12.20;6.20;;;;;;;29.64;28.54;101472.18;108152;1286;21994;-67
2023/10/03 09:41:21;;;;;;;14.50;5.70;;;;;;;29.71;28.66;101470.41;108048;1288;24428;-60
2023/10/03 09:43:49;;;;;;;12.20;6.20;;;;;;;29.91;28.72;101465.98;108068;1288;21999;-60
2023/10/03 09:46:24;;;;;;;14.40;5.50;;;;;;;30.14;28.44;101466.76;108161;1288;21994;-61
2023/10/03 09:48:53;;;;;;;11.40;5.70;;;;;;;30.31;28.23;101463.81;108138;1283;22003;-67
2023/10/03 09:51:36;;;;;;;13.90;5.00;;;;;;;30.57;28.25;101461.75;108123;1280;21972;-67
2023/10/03 09:54:11;;;;;;;10.50;5.10;;;;;;;30.69;27.76;101457.34;108123;1280;21991;-60
2023/10/03 09:56:41;;;;;;;11.60;5.30;;;;;;;30.62;27.75;101454.70;108087;1286;23692;-60
2023/10/03 09:59:07;;;;;;;14.40;5.10;;;;;;;30.69;27.93;101455.54;108130;1284;22046;-60
2023/10/03 10:01:36;;;;;;;13.60;5.50;;;;;;;30.93;27.90;101452.89;108121;1283;21992;-66
2023/10/03 10:04:07;;;;;;;12.70;5.20;;;;;;;31.18;27.62;101450.36;108050;1288;21993;-65
2023/10/03 10:06:54;;;;;;;11.10;5.60;;;;;;;31.33;27.40;101448.73;107999;1286;22002;-68
2023/10/03 10:09:28;;;;;;;16.00;6.30;;;;;;;31.32;26.69;101445.73;108065;1283;22895;-69
2023/10/03 10:12:13;;;;;;;23.30;6.00;;;;;;;31.31;27.01;101447.79;108005;1284;22893;-60
2023/10/03 10:15:00;;;;;;;18.40;5.70;;;;;;;31.45;26.92;101446.09;108015;1288;21993;-66
2023/10/03 10:17:54;;;;;;;14.00;5.40;;;;;;;31.48;26.80;101437.70;108067;1288;22468;-58
2023/10/03 10:20:27;;;;;;;14.20;7.40;;;;;;;31.36;26.33;101431.09;108155;1288;21982;-58
2023/10/03 10:23:03;;;;;;;15.00;6.40;;;;;;;31.24;26.62;101427.51;108100;1284;21985;-59
2023/10/03 10:25:41;;;;;;;12.70;5.80;;;;;;;31.36;26.86;101427.05;108077;1288;22087;-67
2023/10/03 10:28:11;;;;;;;12.70;5.80;;;;;;;31.62;26.67;101424.33;108145;1288;21995;-58
2023/10/03 10:30:38;;;;;;;12.50;5.70;;;;;;;31.80;26.07;101421.95;108087;1288;21992;-58
2023/10/03 10:33:17;;;;;;;11.70;5.50;;;;;;;31.69;25.82;101422.34;107961;1288;21996;-65
2023/10/03 10:36:00;;;;;;;20.50;7.90;;;;;;;31.54;25.95;101423.34;108109;1288;22015;-59
2023/10/03 10:38:31;;;;;;;16.30;7.00;;;;;;;31.60;25.97;101417.23;108139;1288;22002;-65
2023/10/03 10:41:36;;;;;;;12.90;6.10;;;;;;;31.72;25.94;101418.25;108107;1286;21994;-65
2023/10/03 10:44:08;;;;;;;12.70;6.30;;;;;;;31.82;25.99;101416.35;108066;1288;21991;-59
2023/10/03 10:46:44;;;;;;;17.80;6.00;;;;;;;31.94;26.02;101416.23;108120;1288;21993;-65
2023/10/03 10:49:31;;;;;;;14.80;5.60;;;;;;;32.12;25.80;101415.58;108103;1280;21992;-59
2023/10/03 10:51:59;;;;;;;13.30;5.70;;;;;;;32.16;25.26;101410.98;108105;1286;21998;-66
2023/10/03 10:54:25;;;;;;;14.30;6.30;;;;;;;32.09;25.41;101409.66;108147;1288;22071;-65
2023/10/03 10:57:01;;;;;;;12.00;6.10;;;;;;;32.09;25.40;101406.54;108178;1288;21999;-65
2023/10/03 10:59:27;;;;;;;11.50;5.50;;;;;;;32.13;25.24;101403.64;107810;1288;22025;-65
2023/10/03 11:01:53;;;;;;;10.80;5.80;;;;;;;32.14;25.17;101402.88;108126;1288;21991;-65
2023/10/03 11:04:25;;;;;;;14.00;5.50;;;;;;;32.07;25.18;101402.40;108168;1288;22009;-65
2023/10/03 11:06:52;;;;;;;13.20;5.40;;;;;;;32.20;25.42;101396.73;108125;1287;21989;-65
2023/10/03 11:09:20;;;;;;;12.10;5.10;;;;;;;32.43;25.50;101396.69;108093;1288;22172;-59
2023/10/03 11:11:46;;;;;;;16.30;5.60;;;;;;;32.52;25.04;101389.71;108104;1280;23045;-59
2023/10/03 11:14:12;;;;;;;15.00;6.00;;;;;;;32.47;24.73;101385.66;108165;1286;21978;-66
2023/10/03 11:16:38;;;;;;;11.60;5.70;;;;;;;32.39;24.55;101387.92;108115;1287;21997;-65
2023/10/03 11:19:04;;;;;;;10.80;5.70;;;;;;;32.27;24.68;101386.08;108103;1288;21987;-65